Pagrindinis puslapis
METAR-TAF:

METAR-TAF

Oro uostai :

Lahr, Vokietija

platuma: 48-22-09N, ilguma: 007-49-40E, Aukštis: 156 m

Dabartinis oras

Ataskaita buvo paskelbta 41 minutes, ne 10:20 UTC
Vėjas 5 kt iš Vakarų
Temperatūra 14°C
Drėgmė 88%
Slėgis 1001 hPa
Matomumas 10 km arba daugiau
Mažai debesys ne aukštis 300 ft
Išsisklaidę debesys ne aukštis 1200 ft
Su prošvaistėmis ne aukštis 1700 ft
Liūtis kaimynystėje

METAR: EDTL 051020Z 27005KT 9999 VCSH FEW003 SCT012 BKN017 14/12 Q1001

Laikas: 13:01 (11:01 UTC)

Prognozė

Ataskaita buvo paskelbta 3 valandos ir 1 minutes, ne 08:00 UTC
Prognozė galioja nuo 05 metu 09 UTC su 05 metu 18 UTC
Vėjas 8 kt iš Pietų/Pietvakarių
Matomumas 10 km arba daugiau
Išsisklaidę debesys ne aukštis 2500 ft
Su prošvaistėmis ne aukštis 4500 ft
Tapsmas
nuo 05 metu 10 UTC su 05 metu 12 UTC
Vėjas 15 kt iš Pietų/Pietvakarių su gūsio iki 25 kt

TAF: EDTL 050800Z 0509/0518 21008KT 9999 SCT025 BKN045 BECMG 0510/0512 21015G25KT

Orai ataskaitas ir orų prognozės (METAR, TAF).

turimą stotys yra geltonos ir raudonos taškus žemėlapyje.

Perkelti pele per norėdami pamatyti stoties vardą.

Tada spustelėkite, norėdami matyti oro stebėjimo ir prognozės.

Norėdami pakeisti žemėlapį: spustelėkite ant žalios mygtukų su juodo kryžiaus žemyn,; žalią mygtuką su brūkšneliu, jei norite nutolinti; arba žalių rodyklių gretimoms žemėlapius.


METAR-TAF: